createdAt,value
2022-10-15T00:01:42.961Z,77.90
2022-10-15T00:04:11.570Z,78.30
2022-10-15T00:06:39.809Z,80.40
2022-10-15T00:09:08.006Z,70.90
2022-10-15T00:11:36.825Z,70.90
2022-10-15T00:14:05.213Z,73.70
2022-10-15T00:16:33.758Z,72.50
2022-10-15T00:19:02.008Z,74.60
2022-10-15T00:21:30.809Z,77.70
2022-10-15T00:23:59.092Z,74.60
2022-10-15T00:26:29.278Z,79.00
2022-10-15T00:29:00.819Z,74.20
2022-10-15T00:31:31.596Z,71.70
2022-10-15T00:34:01.974Z,71.90
2022-10-15T00:36:34.576Z,78.10
2022-10-15T00:39:05.339Z,79.50
2022-10-15T00:41:41.326Z,74.40
2022-10-15T00:44:21.907Z,72.00
2022-10-15T00:46:53.406Z,74.40
2022-10-15T00:49:27.466Z,77.50
2022-10-15T00:52:03.731Z,83.40
2022-10-15T00:54:37.844Z,77.80
2022-10-15T00:57:07.342Z,75.80
2022-10-15T00:59:47.972Z,74.40
2022-10-15T01:02:19.178Z,78.50
2022-10-15T01:04:48.603Z,79.60
2022-10-15T01:09:50.862Z,77.90
2022-10-15T01:12:57.767Z,80.60
2022-10-15T01:15:37.116Z,70.10
2022-10-15T01:18:32.499Z,73.70
2022-10-15T01:21:14.226Z,72.30
2022-10-15T01:24:09.546Z,73.90
2022-10-15T01:27:06.351Z,74.70
2022-10-15T01:30:07.832Z,75.20
2022-10-15T01:33:01.455Z,68.00
2022-10-15T01:35:43.970Z,75.30
2022-10-15T01:38:46.396Z,74.00
2022-10-15T01:41:22.769Z,68.40
2022-10-15T01:44:13.099Z,72.70
2022-10-15T01:47:17.863Z,74.20
2022-10-15T01:49:47.847Z,70.60
2022-10-15T01:52:21.156Z,67.40
2022-10-15T01:54:52.317Z,67.20
2022-10-15T01:57:25.346Z,69.80
2022-10-15T01:59:54.912Z,70.40
2022-10-15T02:02:25.669Z,67.00
2022-10-15T02:04:55.018Z,69.00
2022-10-15T02:07:47.846Z,66.90
2022-10-15T02:10:21.283Z,68.50
2022-10-15T02:13:07.807Z,69.10
2022-10-15T02:15:37.359Z,68.70
2022-10-15T02:18:42.140Z,68.30
2022-10-15T02:21:18.652Z,72.10
2022-10-15T02:24:08.475Z,69.20
2022-10-15T02:26:38.225Z,70.50
2022-10-15T02:29:09.311Z,70.50
2022-10-15T02:31:41.832Z,70.80
2022-10-15T02:34:14.288Z,64.20
2022-10-15T02:36:43.204Z,72.50
2022-10-15T02:39:14.861Z,70.10
2022-10-15T02:41:43.936Z,64.90
2022-10-15T02:44:13.798Z,71.80
2022-10-15T02:46:42.048Z,70.00
2022-10-15T02:49:11.160Z,66.40
2022-10-15T02:51:39.985Z,67.10
2022-10-15T02:54:08.588Z,72.20
2022-10-15T02:56:39.584Z,68.70
2022-10-15T02:59:08.513Z,66.70
2022-10-15T03:01:36.739Z,66.80
2022-10-15T03:04:06.019Z,63.30
2022-10-15T03:06:35.116Z,64.60
2022-10-15T03:09:05.017Z,69.20
2022-10-15T03:11:33.775Z,66.30
2022-10-15T03:14:02.665Z,62.10
2022-10-15T03:16:32.316Z,66.90
2022-10-15T03:19:00.406Z,61.30
2022-10-15T03:21:31.254Z,66.00
2022-10-15T03:24:06.680Z,62.10
2022-10-15T03:26:35.168Z,65.20
2022-10-15T03:29:04.244Z,60.20
2022-10-15T03:31:58.195Z,65.20
2022-10-15T03:34:26.373Z,61.60
2022-10-15T03:36:55.021Z,68.80
2022-10-15T03:39:23.401Z,65.00
2022-10-15T03:41:54.382Z,61.70
2022-10-15T03:44:26.549Z,65.30
2022-10-15T03:47:05.721Z,62.20
2022-10-15T03:49:42.159Z,66.30
2022-10-15T03:52:10.293Z,63.80
2022-10-15T03:54:39.729Z,65.40
2022-10-15T03:57:08.850Z,68.60
2022-10-15T03:59:41.121Z,61.10
2022-10-15T04:02:09.574Z,65.60
2022-10-15T04:04:37.911Z,67.90
2022-10-15T04:07:06.333Z,65.80
2022-10-15T04:09:34.898Z,65.10
2022-10-15T04:12:41.805Z,69.80
2022-10-15T04:15:12.843Z,64.50
2022-10-15T04:17:46.174Z,69.40
2022-10-15T04:20:14.722Z,67.00
2022-10-15T04:22:44.330Z,69.30
2022-10-15T04:25:12.715Z,69.10
2022-10-15T04:27:40.782Z,70.20
2022-10-15T04:30:12.416Z,64.20
2022-10-15T04:32:44.242Z,66.50
2022-10-15T04:35:12.763Z,66.60
2022-10-15T04:37:51.538Z,68.40
2022-10-15T04:40:19.969Z,70.10
2022-10-15T04:42:48.982Z,67.00
2022-10-15T04:45:17.325Z,65.70
2022-10-15T04:47:46.017Z,67.70
2022-10-15T04:50:16.332Z,64.10
2022-10-15T04:53:22.625Z,62.40
2022-10-15T04:55:52.901Z,63.40
2022-10-15T04:58:21.034Z,66.10
2022-10-15T05:00:49.453Z,62.30
2022-10-15T05:03:28.573Z,64.60
2022-10-15T05:06:07.790Z,69.70
2022-10-15T05:08:38.406Z,64.00
2022-10-15T05:11:21.468Z,66.80
2022-10-15T05:13:50.697Z,64.60
2022-10-15T05:16:21.729Z,65.70
2022-10-15T05:18:55.320Z,65.40
2022-10-15T05:21:23.758Z,65.10
2022-10-15T05:23:54.985Z,60.50
2022-10-15T05:26:48.334Z,63.40
2022-10-15T05:29:16.750Z,62.40
2022-10-15T05:31:44.925Z,66.00
2022-10-15T05:34:18.934Z,66.70
2022-10-15T05:36:52.539Z,68.00
2022-10-15T05:39:20.814Z,74.40
2022-10-15T05:41:49.606Z,72.40
2022-10-15T05:44:17.982Z,65.40
2022-10-15T05:46:46.061Z,66.80
2022-10-15T05:49:19.298Z,68.30
2022-10-15T05:52:07.419Z,63.00
2022-10-15T05:55:01.460Z,65.80
2022-10-15T05:57:29.474Z,63.70
2022-10-15T05:59:57.568Z,63.30
2022-10-15T06:02:25.969Z,62.90
2022-10-15T06:04:54.477Z,62.40
2022-10-15T06:07:22.833Z,62.60
2022-10-15T06:09:51.909Z,65.40
2022-10-15T06:12:20.137Z,61.10
2022-10-15T06:14:48.157Z,63.50
2022-10-15T06:17:16.224Z,57.00
2022-10-15T06:19:50.456Z,58.40
2022-10-15T06:22:18.457Z,59.90
2022-10-15T06:24:46.614Z,57.90
2022-10-15T06:27:14.713Z,58.90
2022-10-15T06:29:42.752Z,65.60
2022-10-15T06:32:12.494Z,60.50
2022-10-15T06:34:45.006Z,58.40
2022-10-15T06:37:13.241Z,60.40
2022-10-15T06:39:41.520Z,64.00
2022-10-15T06:42:09.691Z,62.20
2022-10-15T06:44:41.224Z,62.00
2022-10-15T06:47:10.218Z,61.10
2022-10-15T06:49:38.411Z,67.40
2022-10-15T06:52:06.995Z,57.10
2022-10-15T06:54:35.047Z,59.40
2022-10-15T06:57:03.548Z,61.30
2022-10-15T06:59:31.619Z,56.60
2022-10-15T07:02:01.714Z,55.60
2022-10-15T07:04:31.525Z,58.40
2022-10-15T07:07:00.303Z,59.40
2022-10-15T07:09:29.571Z,56.10
2022-10-15T07:11:57.942Z,54.00
2022-10-15T07:14:26.347Z,57.10
2022-10-15T07:16:54.708Z,54.10
2022-10-15T07:19:24.570Z,58.20
2022-10-15T07:21:52.919Z,55.80
2022-10-15T07:24:21.255Z,56.90
2022-10-15T07:26:49.610Z,56.50
2022-10-15T07:29:17.707Z,56.90
2022-10-15T07:31:47.484Z,53.60
2022-10-15T07:34:17.959Z,55.50
2022-10-15T07:36:46.224Z,53.30
2022-10-15T07:39:14.882Z,54.80
2022-10-15T07:41:42.896Z,49.90
2022-10-15T07:44:10.948Z,54.10
2022-10-15T07:46:39.104Z,51.00
2022-10-15T07:49:07.168Z,50.90
2022-10-15T07:51:35.223Z,53.20
2022-10-15T07:54:04.960Z,55.30
2022-10-15T07:56:33.022Z,49.20
2022-10-15T07:59:01.292Z,50.10
2022-10-15T08:01:29.507Z,46.80
2022-10-15T08:03:57.519Z,52.80
2022-10-15T08:06:26.147Z,50.20
2022-10-15T08:08:54.327Z,55.50
2022-10-15T08:11:22.671Z,51.60
2022-10-15T08:13:53.129Z,47.70
2022-10-15T08:16:21.298Z,52.60
2022-10-15T08:19:00.371Z,47.20
2022-10-15T08:21:29.279Z,49.80
2022-10-15T08:23:57.466Z,48.50
2022-10-15T08:26:34.904Z,49.90
2022-10-15T08:29:03.710Z,46.70
2022-10-15T08:31:35.410Z,51.00
2022-10-15T08:34:03.690Z,43.50
2022-10-15T08:36:31.876Z,42.70
2022-10-15T08:39:00.020Z,45.60
2022-10-15T08:41:43.149Z,45.70
2022-10-15T08:44:50.398Z,43.70
2022-10-15T08:47:32.498Z,40.10
2022-10-15T08:50:06.505Z,42.00
2022-10-15T08:52:37.289Z,44.10
2022-10-15T08:55:05.598Z,41.40
2022-10-15T08:57:48.011Z,41.20
2022-10-15T09:00:55.858Z,44.30
2022-10-15T09:03:38.390Z,40.10
2022-10-15T09:06:25.343Z,42.20
2022-10-15T09:09:05.429Z,41.80
2022-10-15T09:11:49.063Z,44.80
2022-10-15T09:14:22.497Z,43.50
2022-10-15T09:16:51.526Z,41.90
2022-10-15T09:19:26.223Z,40.80
2022-10-15T09:21:54.855Z,38.90
2022-10-15T09:24:27.317Z,39.60
2022-10-15T09:27:29.397Z,39.40
2022-10-15T09:30:18.398Z,38.50
2022-10-15T09:33:24.354Z,40.40
2022-10-15T09:36:00.390Z,41.20
2022-10-15T09:38:58.919Z,42.10
2022-10-15T09:41:45.415Z,40.60
2022-10-15T09:44:17.298Z,35.70
2022-10-15T09:46:51.261Z,36.70
2022-10-15T09:49:26.033Z,40.40
2022-10-15T09:52:13.525Z,38.00
2022-10-15T09:54:51.065Z,36.50
2022-10-15T09:57:24.189Z,39.10
2022-10-15T10:00:01.612Z,38.40
2022-10-15T10:02:30.664Z,35.70
2022-10-15T10:05:29.497Z,37.90
2022-10-15T10:08:16.380Z,38.60
2022-10-15T10:10:46.845Z,42.60
2022-10-15T10:13:28.553Z,39.80
2022-10-15T10:16:06.299Z,40.20
2022-10-15T10:18:35.226Z,37.70
2022-10-15T10:21:21.169Z,38.00
2022-10-15T10:23:50.149Z,37.80
2022-10-15T10:26:18.777Z,33.90
2022-10-15T10:29:04.954Z,36.00
2022-10-15T10:31:43.024Z,37.00
2022-10-15T10:34:18.325Z,40.50
2022-10-15T10:36:52.954Z,36.70
2022-10-15T10:42:20.244Z,33.60
2022-10-15T10:44:48.771Z,35.00
2022-10-15T10:47:23.635Z,34.40
2022-10-15T10:49:57.768Z,35.20
2022-10-15T10:52:32.502Z,32.40
2022-10-15T10:55:13.714Z,35.40
2022-10-15T10:57:49.527Z,30.70
2022-10-15T11:00:44.443Z,33.50
2022-10-15T11:03:15.661Z,31.50
2022-10-15T11:05:46.093Z,35.70
2022-10-15T11:08:26.465Z,32.90
2022-10-15T11:11:04.389Z,27.00
2022-10-15T11:13:50.417Z,32.90
2022-10-15T11:16:45.844Z,33.50
2022-10-15T11:19:54.542Z,30.20
2022-10-15T11:22:22.099Z,38.90
2022-10-15T11:25:06.776Z,33.90
2022-10-15T11:28:06.397Z,37.20
2022-10-15T11:30:37.553Z,31.30
2022-10-15T11:33:31.164Z,34.10
2022-10-15T11:36:21.252Z,33.50
2022-10-15T11:39:12.324Z,37.80
2022-10-15T11:41:46.538Z,36.00
2022-10-15T11:44:39.062Z,38.40
2022-10-15T11:47:21.573Z,39.10
2022-10-15T11:49:56.561Z,39.30
2022-10-15T11:52:28.252Z,40.10
2022-10-15T11:55:16.201Z,36.80
2022-10-15T11:57:46.872Z,40.00
2022-10-15T12:00:18.075Z,36.10
2022-10-15T12:02:50.076Z,39.20
2022-10-15T12:05:30.231Z,41.50
2022-10-15T12:07:59.561Z,41.80
2022-10-15T12:10:40.994Z,45.20
2022-10-15T12:13:26.450Z,42.80
2022-10-15T12:16:06.722Z,41.90
2022-10-15T12:18:58.319Z,46.30
2022-10-15T12:22:00.934Z,46.50
2022-10-15T12:24:38.138Z,46.40
2022-10-15T12:27:26.832Z,48.70
2022-10-15T12:30:04.346Z,47.10
2022-10-15T12:32:40.277Z,44.30
2022-10-15T12:37:56.410Z,46.60
2022-10-15T12:40:32.118Z,50.10
2022-10-15T12:43:03.984Z,49.30
2022-10-15T12:45:40.890Z,55.00
2022-10-15T12:48:09.106Z,49.70
2022-10-15T12:50:37.625Z,53.60
2022-10-15T12:53:25.779Z,48.50
2022-10-15T12:56:09.746Z,54.10
2022-10-15T12:58:48.220Z,56.90
2022-10-15T13:01:16.843Z,59.80
2022-10-15T13:03:51.236Z,56.90
2022-10-15T13:06:25.172Z,59.00
2022-10-15T13:09:12.059Z,57.90
2022-10-15T13:14:26.332Z,58.10
2022-10-15T13:16:57.739Z,59.50
2022-10-15T13:19:32.909Z,58.10
2022-10-15T13:22:03.328Z,58.20
2022-10-15T13:24:44.227Z,58.10
2022-10-15T13:27:22.278Z,60.60
2022-10-15T13:29:57.630Z,57.40
2022-10-15T13:32:35.776Z,56.50
2022-10-15T13:35:11.507Z,56.00
2022-10-15T13:37:41.407Z,59.70
2022-10-15T13:40:21.418Z,62.80
2022-10-15T13:43:01.252Z,61.60
2022-10-15T13:45:30.468Z,57.60
2022-10-15T13:48:00.093Z,60.10
2022-10-15T13:50:30.007Z,60.60
2022-10-15T13:53:04.787Z,57.20
2022-10-15T13:55:40.255Z,54.70
2022-10-15T13:58:41.434Z,58.10
2022-10-15T14:01:18.339Z,59.60
2022-10-15T14:03:49.994Z,56.30
2022-10-15T14:06:21.864Z,64.90
2022-10-15T14:08:53.437Z,60.20
2022-10-15T14:11:22.707Z,65.60
2022-10-15T14:13:53.507Z,63.00
2022-10-15T14:16:42.713Z,85.80
2022-10-15T14:19:17.478Z,63.10
2022-10-15T14:21:48.747Z,60.70
2022-10-15T14:24:20.825Z,62.10
2022-10-15T14:26:49.959Z,63.50
2022-10-15T14:29:35.058Z,62.80
2022-10-15T14:32:03.423Z,63.60
2022-10-15T14:34:41.847Z,57.40
2022-10-15T14:37:40.458Z,60.60
2022-10-15T14:40:08.842Z,59.00
2022-10-15T14:42:40.173Z,61.60
2022-10-15T14:45:29.247Z,59.10
2022-10-15T14:48:11.397Z,51.00
2022-10-15T14:50:44.175Z,56.50
2022-10-15T14:53:19.389Z,60.10
2022-10-15T14:55:52.594Z,57.80
2022-10-15T14:58:23.758Z,56.80
2022-10-15T15:00:57.416Z,55.80
2022-10-15T15:06:07.337Z,63.10
2022-10-15T15:08:36.280Z,56.50
2022-10-15T15:11:07.063Z,53.50
2022-10-15T15:13:44.075Z,57.90
2022-10-15T15:16:14.289Z,54.30
2022-10-15T15:18:44.134Z,50.80
2022-10-15T15:21:20.381Z,51.50
2022-10-15T15:23:49.054Z,51.90
2022-10-15T15:26:17.342Z,54.50
2022-10-15T15:28:45.930Z,62.40
2022-10-15T15:31:18.049Z,56.20
2022-10-15T15:33:47.038Z,60.10
2022-10-15T15:36:22.604Z,54.50
2022-10-15T15:38:52.050Z,48.80
2022-10-15T15:41:23.998Z,51.40
2022-10-15T15:43:54.998Z,53.70
2022-10-15T15:46:23.242Z,50.10
2022-10-15T15:48:51.411Z,51.50
2022-10-15T15:51:32.279Z,51.80
2022-10-15T15:54:04.648Z,51.10
2022-10-15T15:56:35.073Z,52.40
2022-10-15T15:59:03.429Z,54.60
2022-10-15T16:01:31.694Z,49.20
2022-10-15T16:04:00.487Z,50.30
2022-10-15T16:06:28.692Z,52.00
2022-10-15T16:08:59.693Z,50.30
2022-10-15T16:11:27.805Z,49.30
2022-10-15T16:13:56.559Z,50.00
2022-10-15T16:16:26.403Z,51.80
2022-10-15T16:18:54.799Z,49.70
2022-10-15T16:21:26.910Z,52.60
2022-10-15T16:23:55.230Z,54.10
2022-10-15T16:26:23.754Z,55.40
2022-10-15T16:28:51.919Z,54.30
2022-10-15T16:31:29.558Z,54.30
2022-10-15T16:33:59.601Z,53.40
2022-10-15T16:36:27.720Z,56.90
2022-10-15T16:38:56.865Z,56.30
2022-10-15T16:41:25.815Z,54.70
2022-10-15T16:43:54.129Z,58.60
2022-10-15T16:46:22.424Z,58.30
2022-10-15T16:48:55.993Z,56.50
2022-10-15T16:51:24.530Z,52.70
2022-10-15T16:53:53.296Z,54.80
2022-10-15T16:56:28.683Z,56.90
2022-10-15T16:58:57.504Z,58.50
2022-10-15T17:01:28.772Z,56.90
2022-10-15T17:03:59.216Z,55.10
2022-10-15T17:06:30.093Z,55.50
2022-10-15T17:09:00.209Z,55.40
2022-10-15T17:11:35.353Z,56.20
2022-10-15T17:14:11.832Z,56.30
2022-10-15T17:16:48.081Z,54.60
2022-10-15T17:19:21.892Z,50.60
2022-10-15T17:21:50.946Z,53.80
2022-10-15T17:24:19.712Z,50.90
2022-10-15T17:26:49.959Z,55.20
2022-10-15T17:29:27.764Z,55.20
2022-10-15T17:31:59.084Z,53.70
2022-10-15T17:34:28.229Z,57.60
2022-10-15T17:36:57.034Z,54.40
2022-10-15T17:39:25.393Z,27.70
2022-10-15T17:41:53.679Z,54.20
2022-10-15T17:44:21.940Z,55.10
2022-10-15T17:46:50.731Z,57.20
2022-10-15T17:49:20.420Z,53.20
2022-10-15T17:51:50.585Z,58.50
2022-10-15T17:54:18.824Z,55.30
2022-10-15T17:56:47.018Z,59.10
2022-10-15T17:59:15.612Z,54.10
2022-10-15T18:02:00.708Z,57.60
2022-10-15T18:04:31.184Z,53.00
2022-10-15T18:06:59.475Z,56.60
2022-10-15T18:09:28.671Z,57.30
2022-10-15T18:12:01.329Z,55.60
2022-10-15T18:14:32.222Z,56.10
2022-10-15T18:17:00.915Z,56.30
2022-10-15T18:19:29.625Z,55.50
2022-10-15T18:21:58.222Z,55.50
2022-10-15T18:24:26.817Z,58.10
2022-10-15T18:26:55.174Z,55.30
2022-10-15T18:29:25.455Z,56.00
2022-10-15T18:31:57.609Z,53.70
2022-10-15T18:34:28.212Z,58.00
2022-10-15T18:36:57.201Z,55.80
2022-10-15T18:39:26.581Z,54.80
2022-10-15T18:41:55.213Z,54.20
2022-10-15T18:44:24.529Z,51.90
2022-10-15T18:46:52.881Z,53.40
2022-10-15T18:49:21.453Z,52.30
2022-10-15T18:51:53.258Z,53.20
2022-10-15T18:54:23.026Z,53.90
2022-10-15T18:56:52.880Z,53.30
2022-10-15T18:59:22.086Z,59.70
2022-10-15T19:01:50.985Z,55.30
2022-10-15T19:04:21.184Z,54.40
2022-10-15T19:06:53.716Z,60.30
2022-10-15T19:09:26.344Z,56.70
2022-10-15T19:11:56.530Z,58.40
2022-10-15T19:14:28.156Z,63.00
2022-10-15T19:16:58.118Z,55.60
2022-10-15T19:19:26.650Z,59.30
2022-10-15T19:21:58.612Z,55.90
2022-10-15T19:24:27.185Z,52.80
2022-10-15T19:26:55.517Z,53.00
2022-10-15T19:29:24.131Z,59.80
2022-10-15T19:31:54.890Z,56.60
2022-10-15T19:34:23.880Z,58.70
2022-10-15T19:36:52.196Z,60.50
2022-10-15T19:39:24.279Z,63.80
2022-10-15T19:41:53.511Z,65.20
2022-10-15T19:44:25.769Z,68.60
2022-10-15T19:46:56.357Z,68.90
2022-10-15T19:49:25.571Z,70.20
2022-10-15T19:51:54.907Z,74.20
2022-10-15T19:56:51.667Z,72.10
2022-10-15T19:59:19.853Z,71.90
2022-10-15T20:01:48.219Z,67.60
2022-10-15T20:04:20.659Z,67.50
2022-10-15T20:06:52.664Z,66.30
2022-10-15T20:09:20.887Z,70.00
2022-10-15T20:11:49.643Z,65.70
2022-10-15T20:14:17.901Z,61.90
2022-10-15T20:16:46.145Z,58.50
2022-10-15T20:19:14.673Z,60.20
2022-10-15T20:21:43.210Z,58.40
2022-10-15T20:24:12.108Z,57.00
2022-10-15T20:26:40.251Z,58.70
2022-10-15T20:29:09.680Z,59.70
2022-10-15T20:31:38.307Z,55.60
2022-10-15T20:34:06.743Z,55.80
2022-10-15T20:36:34.939Z,59.60
2022-10-15T20:39:03.195Z,59.90
2022-10-15T20:41:31.679Z,58.20
2022-10-15T20:44:00.264Z,58.40
2022-10-15T20:46:35.965Z,57.00
2022-10-15T20:49:09.388Z,57.00
2022-10-15T20:51:40.737Z,54.10
2022-10-15T20:54:11.077Z,53.60
2022-10-15T20:56:40.254Z,60.70
2022-10-15T20:59:08.628Z,56.80
2022-10-15T21:01:37.323Z,58.70
2022-10-15T21:04:06.355Z,50.90
2022-10-15T21:06:34.671Z,52.30
2022-10-15T21:09:03.738Z,49.10
2022-10-15T21:11:32.106Z,50.00
2022-10-15T21:14:01.683Z,51.90
2022-10-15T21:19:04.523Z,49.90
2022-10-15T21:21:32.850Z,50.80
2022-10-15T21:24:01.216Z,47.80
2022-10-15T21:26:29.502Z,45.70
2022-10-15T21:29:00.472Z,47.80
2022-10-15T21:31:28.999Z,49.00
2022-10-15T21:33:57.828Z,47.40
2022-10-15T21:36:28.331Z,47.40
2022-10-15T21:38:57.744Z,45.80
2022-10-15T21:41:28.654Z,48.50
2022-10-15T21:43:57.735Z,50.80
2022-10-15T21:46:26.479Z,48.60
2022-10-15T21:48:55.139Z,49.80
2022-10-15T21:51:27.245Z,47.10
2022-10-15T21:53:56.898Z,46.30
2022-10-15T21:56:25.323Z,48.80
2022-10-15T21:58:54.702Z,45.10
2022-10-15T22:01:25.911Z,45.40
2022-10-15T22:03:59.849Z,46.70
2022-10-15T22:06:30.997Z,48.30
2022-10-15T22:09:01.874Z,45.40
2022-10-15T22:11:37.005Z,45.10
2022-10-15T22:14:07.377Z,44.70
2022-10-15T22:16:37.853Z,46.10
2022-10-15T22:19:08.976Z,45.80
2022-10-15T22:21:38.811Z,48.70
2022-10-15T22:24:13.022Z,50.80
2022-10-15T22:26:44.291Z,50.70
2022-10-15T22:29:34.543Z,46.10
2022-10-15T22:32:03.780Z,51.00
2022-10-15T22:34:31.953Z,48.60
2022-10-15T22:37:00.114Z,47.50
2022-10-15T22:39:28.303Z,50.10
2022-10-15T22:41:56.598Z,48.70
2022-10-15T22:44:24.775Z,48.50
2022-10-15T22:46:52.895Z,48.40
2022-10-15T22:49:23.787Z,47.80
2022-10-15T22:51:51.945Z,50.10
2022-10-15T22:54:22.138Z,47.30
2022-10-15T22:56:51.436Z,48.50
2022-10-15T22:59:20.429Z,48.80
2022-10-15T23:01:48.653Z,49.30
2022-10-15T23:04:17.059Z,47.20
2022-10-15T23:06:45.289Z,48.70
2022-10-15T23:09:18.115Z,48.90
2022-10-15T23:11:47.015Z,49.10
2022-10-15T23:14:17.367Z,49.80
2022-10-15T23:16:47.538Z,49.30
2022-10-15T23:19:18.778Z,49.40
2022-10-15T23:21:48.350Z,46.00
2022-10-15T23:24:18.947Z,48.60
2022-10-15T23:26:47.738Z,50.80
2022-10-15T23:29:18.593Z,47.10
2022-10-15T23:31:47.781Z,49.00
2022-10-15T23:34:22.117Z,49.90
2022-10-15T23:36:50.691Z,50.00
2022-10-15T23:39:21.493Z,51.60
2022-10-15T23:41:50.281Z,48.40
2022-10-15T23:44:19.003Z,48.90
2022-10-15T23:46:47.188Z,53.00
2022-10-15T23:49:15.256Z,46.80
2022-10-15T23:51:43.849Z,49.50
2022-10-15T23:54:15.460Z,51.10
2022-10-15T23:56:44.556Z,52.10
2022-10-15T23:59:13.013Z,54.40
